Terminal Aerodrome Forecast
Issued by NWS Wichita, KS

Home | Current Version | Previous Version | Graphics & Text | Print | Product List | Glossary On
Versions: 1 2 3 4 5 6 7 8 9 10 11 12 13 14 15 16
000
FTUS43 KICT 252320
TAFICT
TAF
KICT 252320Z 2600/2624 35014KT P6SM VCSH OVC030
     FM260200 36016KT P6SM VCSH OVC025
     FM260400 36017G23KT P6SM VCSH OVC018
     FM261300 36016G25KT P6SM OVC025
     FM261700 34017G25KT P6SM SCT035 BKN150=

USA.gov is the U.S. government's official web portal to all federal, state and local government web resources and services.